Current Metar reports for airports in our Region

Nearby METAR Reports

Metar reports are mainly used by pilots for information on what is happening at their destination during their pre-flight weather briefings and by meteorologists to assist in short term forecasts. A raw Metar is one of the most universal ways to communicate weather information in the world and are usually transmitted by airports, but some come from permanent sanctioned weather observatories.

Listed below are Metars from airports within 100 miles of our station here in Smethport Pa. The first one of course is the Bradford Regional Airport, then the Olean NY airport and so on. Each airport has it's own table to display it's data and at the bottom of the table is 'Raw' Metar for each airport. Most pilots and weather forecasters can look at the raw data and tell you what is up, but we use a script that handles all of the details for us.

KBFD - Bradford, Pennsylvania, USA
Distance from station: NW 7mi, 11km
Updated: Wed, 12-Dec-2018 5:53am EST
Mist, Overcast
Mist, Overcast
 Wind from W
Wind: W 5 mph , 7 km/h
Temperature: 27°F , -3°C
Wind Chill: 21°F , -6°C
Dew Point: 25°F , -4°C
Humidity: 93%
Barometer: 30.04 inHg , 1017.3 hPa
Summary: Mist
Clouds: Overcast
Visibility: 5 miles , 8 km
Cloud details: Mostly Cloudy 600 ft
Overcast 2600 ft
2018/12/12 10:53 KBFD 121053Z AUTO 27004KT 5SM BR BKN006 OVC026 M03/M04 A3004 RMK AO2 SLP196 T10331039
KOLE - Olean, New York, USA
Distance from station: NNE 37mi, 59km
Updated: Wed, 12-Dec-2018 6:15am EST
Overcast
Overcast
 Wind from calm
Wind: Calm
Temperature: 27°F , -3°C
Dew Point: 27°F , -3°C
Humidity: 100%
Barometer: 30.03 inHg , 1016.9 hPa
Clouds: Overcast
Visibility: 7 miles , 11 km
Cloud details: Overcast 600 ft
2018/12/12 11:15 KOLE 121115Z AUTO 00000KT 7SM OVC006 M03/M03 A3003 RMK AO2
 
KELZ - Wellsville, New York, USA
Distance from station: NE 40mi, 64km
Updated: Wed, 12-Dec-2018 6:03am EST
Mist, Overcast
Mist, Overcast
 
Temperature: 27°F , -3°C
Dew Point: 25°F , -4°C
Humidity: 93%
Barometer: 30.03 inHg , 1016.9 hPa
Summary: Mist
Clouds: Overcast
Visibility: 6 miles , 10 km
Cloud details: Mostly Cloudy 2400 ft
Overcast 3100 ft
2018/12/12 11:03 KELZ 121103Z AUTO 6SM BR BKN024 OVC031 M03/M04 A3003 RMK AO2 T10331039 $
KDUJ - Du Bois, Pennsylvania, USA
Distance from station: SSW 42mi, 68km
Updated: Wed, 12-Dec-2018 6:03am EST
Mist, Overcast
Mist, Overcast
 Wind from W
Wind: W 5 mph , 7 km/h
Temperature: 27°F , -3°C
Wind Chill: 21°F , -6°C
Dew Point: 25°F , -4°C
Humidity: 93%
Barometer: 30.06 inHg , 1017.9 hPa
Summary: Mist
Clouds: Overcast
Visibility: 3 miles , 5 km
Cloud details: Partly Cloudy 700 ft
Overcast 2100 ft
2018/12/12 11:03 KDUJ 121103Z AUTO 27004KT 3SM BR SCT007 OVC021 M03/M04 A3006 RMK AO2 T10281039
 
KJHW - Jamestown, New York, USA
Distance from station: NW 46mi, 75km
Updated: Wed, 12-Dec-2018 5:56am EST
Mist, Overcast
Mist, Overcast
 Wind from SW
Wind: SW 7 mph , 11 km/h
Temperature: 27°F , -3°C
Wind Chill: 19°F , -7°C
Dew Point: 25°F , -4°C
Humidity: 93%
Barometer: 30.06 inHg , 1017.9 hPa
Summary: Mist
Clouds: Overcast
Visibility: 5 miles , 8 km
Cloud details: Mostly Cloudy 1900 ft
Overcast 2300 ft
2018/12/12 10:56 KJHW 121056Z AUTO 23006KT 5SM BR BKN019 OVC023 M03/M04 A3006 RMK AO2 SLP208 T10281039 FZRANO
KFIG - Clearfield, Pennsylvania, USA
Distance from station: S 47mi, 75km
Updated: Wed, 12-Dec-2018 5:54am EST
Overcast
Overcast
 Wind from WSW
Wind: WSW 6 mph , 9 km/h
Temperature: 30°F , -1°C
Wind Chill: 24°F , -4°C
Dew Point: 25°F , -4°C
Humidity: 80%
Barometer: 30.08 inHg , 1018.6 hPa
Clouds: Overcast
Visibility: 7 miles , 11 km
Cloud details: Overcast 2500 ft
2018/12/12 10:54 KFIG 121054Z AUTO 24005KT 7SM OVC025 M01/M04 A3008 RMK AO2 SLP203 T10111039
 
KDKK - Dunkirk, New York, USA
Distance from station: NW 66mi, 106km
Updated: Wed, 12-Dec-2018 5:53am EST
Overcast
Overcast
 Wind from SSW
Wind: SSW 5 mph , 7 km/h
Temperature: 30°F , -1°C
Wind Chill: 25°F , -4°C
Dew Point: 27°F , -3°C
Humidity: 86%
Barometer: 30.10 inHg , 1019.3 hPa
Clouds: Overcast
Visibility: 10 miles , 16 km
Cloud details: Few Clouds 2000 ft
Overcast 4500 ft
2018/12/12 10:53 KDKK 121053Z AUTO 20004KT 10SM FEW020 OVC045 M01/M03 A3010 RMK AO2 SLP203 T10111033
KUNV - State College, Pennsylvania, USA
Distance from station: SSE 71mi, 114km
Updated: Wed, 12-Dec-2018 5:53am EST
Mist, Partly cloudy
Mist, Partly cloudy
 Wind from W
Wind: W 9 mph , 15 km/h
Temperature: 30°F , -1°C
Wind Chill: 22°F , -6°C
Dew Point: 25°F , -4°C
Humidity: 80%
Barometer: 30.09 inHg , 1019 hPa
Summary: Mist
Clouds: Partly Cloudy
Visibility: 6 miles , 10 km
Cloud details: Partly Cloudy 3300 ft
Partly Cloudy 4500 ft
2018/12/12 10:53 KUNV 121053Z 27008KT 6SM BR SCT033 SCT045 M01/M04 A3009
 
KFKL - Franklin, Pennsylvania, USA
Distance from station: WSW 72mi, 116km
Updated: Wed, 12-Dec-2018 5:56am EST
Mist, Overcast
Mist, Overcast
 Wind from calm
Wind: Calm
Temperature: 28°F , -2°C
Dew Point: 27°F , -3°C
Humidity: 93%
Barometer: 30.08 inHg , 1018.6 hPa
Summary: Mist
Clouds: Overcast
Visibility: 4 miles , 6 km
Cloud details: Overcast 1500 ft
2018/12/12 10:56 KFKL 121056Z AUTO 00000KT 4SM BR OVC015 M02/M03 A3008 RMK AO2 SLP205 T10221033 FZRANO
KDSV - Dansville, New York, USA
Distance from station: NE 73mi, 117km
Updated: Wed, 12-Dec-2018 5:54am EST
Overcast
Overcast
 Wind from calm
Wind: Calm
Temperature: 30°F , -1°C
Dew Point: 27°F , -3°C
Humidity: 86%
Barometer: 30.08 inHg , 1018.6 hPa
Clouds: Overcast
Visibility: 7 miles , 11 km
Cloud details: Mostly Cloudy 1700 ft
Overcast 2300 ft
2018/12/12 10:54 KDSV 121054Z AUTO 00000KT 7SM BKN017 OVC023 M01/M03 A3008 RMK AO2 SLP203 T10061028
 
KIDI - Indiana/Stewart, Pennsylvania, USA
Distance from station: SSW 81mi, 130km
Updated: Wed, 12-Dec-2018 6:15am EST
Overcast
Overcast
 Wind from NW
Wind: NW 3 mph , 6 km/h
Temperature: 32°F , 0°C
Dew Point: 25°F , -4°C
Humidity: 75%
Barometer: 30.13 inHg , 1020.3 hPa
Clouds: Overcast
Visibility: 8 miles , 13 km
Cloud details: Overcast 2400 ft
2018/12/12 11:15 KIDI 121115Z AUTO 31003KT 8SM OVC024 M00/M04 A3013 RMK A01
KBUF - Buffalo/Cheektow, New York, USA
Distance from station: N 84mi, 136km
Updated: Wed, 12-Dec-2018 6:21am EST
Overcast
Overcast
 Wind from WSW
Wind: WSW 7 mph , 11 km/h
Temperature: 28°F , -2°C
Wind Chill: 21°F , -6°C
Dew Point: 27°F , -3°C
Humidity: 93%
Barometer: 30.10 inHg , 1019.3 hPa
Clouds: Overcast
Visibility: 7 miles , 11 km
Cloud details: Mostly Cloudy 1600 ft
Overcast 4600 ft
2018/12/12 11:21 KBUF 121121Z 24006KT 7SM BKN016 OVC046 M02/M03 A3010 RMK AO2 T10171033
 
KGKJ - Meadville, Pennsylvania, USA
Distance from station: W 86mi, 138km
Updated: Wed, 12-Dec-2018 5:53am EST
Mist, Overcast
Mist, Overcast
 Wind from S
Wind: S 3 mph , 6 km/h
Temperature: 28°F , -2°C
Dew Point: 27°F , -3°C
Humidity: 93%
Barometer: 30.07 inHg , 1018.3 hPa
Summary: Mist
Clouds: Overcast
Visibility: 6 miles , 10 km
Cloud details: Overcast 2200 ft
2018/12/12 10:53 KGKJ 121053Z AUTO 19003KT 6SM BR OVC022 M02/M03 A3007 RMK AO2 SLP199 T10221033
KERI - Erie, Pennsylvania, USA
Distance from station: WNW 87mi, 140km
Updated: Wed, 12-Dec-2018 5:51am EST
Overcast
Overcast
 Wind from S
Wind: S 6 mph , 9 km/h
Temperature: 32°F , 0°C
Wind Chill: 26°F , -3°C
Dew Point: 27°F , -3°C
Humidity: 80%
Barometer: 30.10 inHg , 1019.3 hPa
Clouds: Overcast
Visibility: 7 miles , 11 km
Cloud details: Overcast 2700 ft
2018/12/12 10:51 KERI 121051Z 18005KT 7SM OVC027 00/M03 A3010 RMK AO2 SLP200 T00001033
 
KELM - Elmira, New York, USA
Distance from station: ENE 90mi, 145km
Updated: Wed, 12-Dec-2018 5:53am EST
Overcast
Overcast
 Wind from W
Wind: W 7 mph , 11 km/h
Temperature: 34°F , 1°C
Wind Chill: 28°F , -2°C
Dew Point: 25°F , -4°C
Humidity: 70%
Barometer: 30.06 inHg , 1017.9 hPa
Clouds: Overcast
Visibility: 8 miles , 13 km
Cloud details: Mostly Cloudy 1800 ft
Overcast 3200 ft
2018/12/12 10:53 KELM 121053Z 26006KT 8SM BKN018 OVC032 01/M04 A3006 RMK AO2 SLP189 T00061039
KIPT - Williamsport, Pennsylvania, USA
Distance from station: ESE 91mi, 146km
Updated: Wed, 12-Dec-2018 5:54am EST
Few Clouds
Few Clouds
 Wind from W
Wind: W 6 mph , 9 km/h
Temperature: 28°F , -2°C
Wind Chill: 21°F , -6°C
Dew Point: 23°F , -5°C
Humidity: 80%
Barometer: 30.09 inHg , 1019 hPa
Clouds: Few Clouds
Visibility: 10 miles , 16 km
Cloud details: Few Clouds 3600 ft
2018/12/12 10:54 KIPT 121054Z AUTO 27005KT 10SM FEW036 M02/M05 A3009 RMK AO2 SLP197 T10171050
 
KBTP - Butler Co., Pennsylvania, USA
Distance from station: SW 98mi, 157km
Updated: Wed, 12-Dec-2018 5:56am EST
Overcast
Overcast
 Wind from SW
Wind: SW 5 mph , 7 km/h
Temperature: 30°F , -1°C
Wind Chill: 25°F , -4°C
Dew Point: 25°F , -4°C
Humidity: 80%
Barometer: 30.10 inHg , 1019.3 hPa
Clouds: Overcast
Visibility: 9 miles , 14 km
Cloud details: Overcast 2300 ft
2018/12/12 10:56 KBTP 121056Z AUTO 23004KT 9SM OVC023 M01/M04 A3010 RMK AO2 SLP213 T10111044 FZRANO
KAOO - Altoona, Pennsylvania, USA
Distance from station: S 99mi, 159km
Updated: Wed, 12-Dec-2018 5:53am EST
Overcast
Overcast
 Wind from NW
Wind: NW 7 mph , 11 km/h
Temperature: 32°F , 0°C
Wind Chill: 25°F , -4°C
Dew Point: 21°F , -6°C
Humidity: 64%
Barometer: 30.08 inHg , 1018.6 hPa
Clouds: Overcast
Visibility: 9 miles , 14 km
Cloud details: Overcast 2500 ft
2018/12/12 10:53 KAOO 121053Z AUTO 31006KT 9SM OVC025 00/M06 A3008 RMK AO2 SLP201 T00001056 $
 
KPIT - Pittsburg, Pennsylvania, USA
Distance from station: SSW 126mi, 203km
Updated: Wed, 12-Dec-2018 6:15am EST
Mostly Cloudy
Mostly Cloudy
 Wind from calm
Wind: Calm
Temperature: 28°F , -2°C
Dew Point: 21°F , -6°C
Humidity: 74%
Barometer: 30.09 inHg , 1019 hPa
Clouds: Mostly Cloudy
Visibility: 10 miles , 16 km
Cloud details: Partly Cloudy 2400 ft
Mostly Cloudy 22000 ft
2018/12/12 11:15 KPIT 121115Z 00000KT 10SM SCT024 BKN220 M02/M06 A3009 RMK AO2 T10221056
KCLE - Cleveland, Ohio, USA
Distance from station: WSW 160mi, 258km
Updated: Wed, 12-Dec-2018 5:51am EST
Overcast
Overcast
 Wind from S
Wind: S 7 mph , 11 km/h
Temperature: 32°F , 0°C
Wind Chill: 25°F , -4°C
Dew Point: 25°F , -4°C
Humidity: 75%
Barometer: 30.11 inHg , 1019.6 hPa
Clouds: Overcast
Visibility: 10 miles , 16 km
Cloud details: Overcast 2000 ft
2018/12/12 10:51 KCLE 121051Z 17006KT 10SM OVC020 00/M04 A3011 RMK AO2 SLP204 T00001044 $